Max Planck — ELZY8 — position and weather

sailwx.info

Track history (hours):
 
Tides and Currents Weather Stations Pressure Air Temp Water Temp Dewpoint Dewpoint Depression Visibility Wind Speed Wind Dir Waves Ship Positions

Max Planck

Last reported at 2016-Dec-06 02:32 UTC. Time now 2016-Dec-06 21:56 UTC.
Position N 31°56' E 120°10'.

Length 99.9 m; beam 16.2 m; draft 6.8 m.

Type: Ship (hazmat cat A). MMSI: 636017362.

Date/timePositionNaut miles runAvg speedWind from/ knotsBaromVisibWave heightAir tempDewpointWater temp
2016-Dec-06 02:32N 31°56' E 120°10'1010.1
2016-Dec-06 01:33N 31°60' E 120°21'1010.1
2016-Dec-06 00:32N 32°03' E 120°33'2210.1
2016-Dec-05 22:22N 31°51' E 120°54'911.4
2016-Dec-05 21:33N 31°46' E 121°03'1312.6
2016-Dec-05 20:33N 31°38' E 121°15'6 5.9
2016-Dec-05 19:31N 31°34' E 121°20'0 0.1
2016-Dec-05 18:28N 31°34' E 121°20'0 0.0
2016-Dec-05 17:31N 31°34' E 121°20'0 0.1
2016-Dec-05 16:31N 31°34' E 121°20'0 0.1
2016-Dec-05 15:31N 31°34' E 121°20'0 0.0
2016-Dec-05 14:31N 31°34' E 121°20'0 0.0
2016-Dec-05 13:31N 31°34' E 121°20'0 0.0
2016-Dec-05 12:33N 31°34' E 121°20'0 0.0
2016-Dec-05 11:33N 31°34' E 121°20'0 0.1
2016-Dec-05 10:33N 31°34' E 121°20'0 0.0
2016-Dec-05 09:30N 31°34' E 121°20'9 9.6
2016-Dec-05 08:34N 31°28' E 121°28'8 8.2
2016-Dec-05 07:34N 31°23' E 121°35'9 9.3
2016-Dec-05 06:33N 31°17' E 121°44'  
2016-Dec-01 01:16N 35°02' E 139°37'811.6
2016-Dec-01 00:33N 35°07' E 139°44'1111.3
2016-Nov-30 23:33N 35°18' E 139°44'1010.3
2016-Nov-30 22:34N 35°28' E 139°47'3 3.0
2016-Nov-30 21:32N 35°31' E 139°46'0 0.0
2016-Nov-30 20:32N 35°31' E 139°46'0 0.0
2016-Nov-30 19:32N 35°31' E 139°46'0 0.0
2016-Nov-30 18:32N 35°31' E 139°46'0 0.0
2016-Nov-30 17:32N 35°31' E 139°46'0 0.0
2016-Nov-30 16:32N 35°31' E 139°46'0 0.0
2016-Nov-30 15:29N 35°31' E 139°46'0 0.0
2016-Nov-30 14:29N 35°31' E 139°46'0 0.0
2016-Nov-30 13:29N 35°31' E 139°46'0 0.0
2016-Nov-30 12:29N 35°31' E 139°46'0 0.0
2016-Nov-30 11:23N 35°31' E 139°46'0 0.0
2016-Nov-30 10:32N 35°31' E 139°46'0 0.0
2016-Nov-30 09:32N 35°31' E 139°46'0 0.0
2016-Nov-30 08:32N 35°31' E 139°46'0 0.0
2016-Nov-30 07:29N 35°31' E 139°46'5 5.0
2016-Nov-30 06:33N 35°27' E 139°43'9 9.2
2016-Nov-30 05:33N 35°30' E 139°53'8 8.2
2016-Nov-30 04:33N 35°32' E 140°03'0 0.0
2016-Nov-29 22:26N 35°32' E 140°03'4 4.3
2016-Nov-29 21:32N 35°30' E 139°59'0 0.0
2016-Nov-29 20:26N 35°30' E 139°59'0 0.0
2016-Nov-29 19:29N 35°30' E 139°59'0 0.1
2016-Nov-29 18:32N 35°30' E 139°59'0 0.0
2016-Nov-29 17:29N 35°30' E 139°59'0 0.1
2016-Nov-29 16:32N 35°30' E 139°59'0 0.0
2016-Nov-29 15:29N 35°30' E 139°59'0 0.1
2016-Nov-29 14:32N 35°30' E 139°59'0 0.0
2016-Nov-29 13:32N 35°30' E 139°59'0 0.0
2016-Nov-29 12:32N 35°30' E 139°59'0 0.0
2016-Nov-29 11:29N 35°30' E 139°59'0 0.0
2016-Nov-29 10:29N 35°30' E 139°59'0 0.0
2016-Nov-29 09:29N 35°30' E 139°59'0 0.0
2016-Nov-29 08:32N 35°30' E 139°59'0 0.0
2016-Nov-29 07:32N 35°30' E 139°59'0 0.0
2016-Nov-29 06:29N 35°30' E 139°59'0 0.1
2016-Nov-29 05:29N 35°30' E 139°59'0 0.0
2016-Nov-29 04:23N 35°30' E 139°59'0 0.0
2016-Nov-29 03:29N 35°30' E 139°59'0 0.0
2016-Nov-29 02:32N 35°30' E 139°59'0 0.0
2016-Nov-29 01:32N 35°30' E 139°59'0 0.0
2016-Nov-29 00:32N 35°30' E 139°59'0 0.0
2016-Nov-28 23:32N 35°30' E 139°59'0 0.0
2016-Nov-28 22:32N 35°30' E 139°59'0 0.0
2016-Nov-28 21:32N 35°30' E 139°59'0 0.0
2016-Nov-28 20:29N 35°30' E 139°59'0 0.0
2016-Nov-28 19:32N 35°30' E 139°59'0 0.0
2016-Nov-28 18:32N 35°30' E 139°59'0 0.0
2016-Nov-28 17:32N 35°30' E 139°59'0 0.0
2016-Nov-28 16:32N 35°30' E 139°59'0 0.0
2016-Nov-28 15:29N 35°30' E 139°59'0 0.0
2016-Nov-28 14:32N 35°30' E 139°59'0 0.0
2016-Nov-28 13:32N 35°30' E 139°59'0 0.0
2016-Nov-28 12:26N 35°30' E 139°59'0 0.0
2016-Nov-28 11:32N 35°30' E 139°59'0 0.0
2016-Nov-28 10:32N 35°30' E 139°59'0 0.0
2016-Nov-28 09:32N 35°30' E 139°59'0 0.0
2016-Nov-28 08:29N 35°30' E 139°59'0 0.0
2016-Nov-28 07:26N 35°30' E 139°59'0 0.1
2016-Nov-28 06:29N 35°30' E 139°59'0 0.1
2016-Nov-28 05:32N 35°30' E 139°59'0 0.0
2016-Nov-28 04:29N 35°30' E 139°59'0 0.1
2016-Nov-28 03:32N 35°30' E 139°59'0 0.0
2016-Nov-28 02:23N 35°30' E 139°59'0 0.0
2016-Nov-28 01:29N 35°30' E 139°59'0 0.1
2016-Nov-28 00:32N 35°30' E 139°59'7 7.0
2016-Nov-27 23:33N 35°28' E 139°51'1110.8
2016-Nov-27 22:34N 35°19' E 139°44'1010.3
2016-Nov-27 21:33N 35°09' E 139°46'  
Track history (hours):
 
Tides and Currents Weather Stations Pressure Air Temp Water Temp Dewpoint Dewpoint Depression Visibility Wind Speed Wind Dir Waves Ship Positions

Max Planck

Last reported at 2016-Dec-06 02:32 UTC. Time now 2016-Dec-06 21:56 UTC.
Position N 31°56' E 120°10'.

Length 99.9 m; beam 16.2 m; draft 6.8 m.

Type: Ship (hazmat cat A). MMSI: 636017362.

Date/timePositionNaut miles runAvg speedWind from/ knotsBaromVisibWave heightAir tempDewpointWater temp
2016-Dec-06 02:32N 31°56' E 120°10'1010.1
2016-Dec-06 01:33N 31°60' E 120°21'1010.1
2016-Dec-06 00:32N 32°03' E 120°33'2210.1
2016-Dec-05 22:22N 31°51' E 120°54'911.4
2016-Dec-05 21:33N 31°46' E 121°03'1312.6
2016-Dec-05 20:33N 31°38' E 121°15'6 5.9
2016-Dec-05 19:31N 31°34' E 121°20'0 0.1
2016-Dec-05 18:28N 31°34' E 121°20'0 0.0
2016-Dec-05 17:31N 31°34' E 121°20'0 0.1
2016-Dec-05 16:31N 31°34' E 121°20'0 0.1
2016-Dec-05 15:31N 31°34' E 121°20'0 0.0
2016-Dec-05 14:31N 31°34' E 121°20'0 0.0
2016-Dec-05 13:31N 31°34' E 121°20'0 0.0
2016-Dec-05 12:33N 31°34' E 121°20'0 0.0
2016-Dec-05 11:33N 31°34' E 121°20'0 0.1
2016-Dec-05 10:33N 31°34' E 121°20'0 0.0
2016-Dec-05 09:30N 31°34' E 121°20'9 9.6
2016-Dec-05 08:34N 31°28' E 121°28'8 8.2
2016-Dec-05 07:34N 31°23' E 121°35'9 9.3
2016-Dec-05 06:33N 31°17' E 121°44'  
2016-Dec-01 01:16N 35°02' E 139°37'811.6
2016-Dec-01 00:33N 35°07' E 139°44'1111.3
2016-Nov-30 23:33N 35°18' E 139°44'1010.3
2016-Nov-30 22:34N 35°28' E 139°47'3 3.0
2016-Nov-30 21:32N 35°31' E 139°46'0 0.0
2016-Nov-30 20:32N 35°31' E 139°46'0 0.0
2016-Nov-30 19:32N 35°31' E 139°46'0 0.0
2016-Nov-30 18:32N 35°31' E 139°46'0 0.0
2016-Nov-30 17:32N 35°31' E 139°46'0 0.0
2016-Nov-30 16:32N 35°31' E 139°46'0 0.0
2016-Nov-30 15:29N 35°31' E 139°46'0 0.0
2016-Nov-30 14:29N 35°31' E 139°46'0 0.0
2016-Nov-30 13:29N 35°31' E 139°46'0 0.0
2016-Nov-30 12:29N 35°31' E 139°46'0 0.0
2016-Nov-30 11:23N 35°31' E 139°46'0 0.0
2016-Nov-30 10:32N 35°31' E 139°46'0 0.0
2016-Nov-30 09:32N 35°31' E 139°46'0 0.0
2016-Nov-30 08:32N 35°31' E 139°46'0 0.0
2016-Nov-30 07:29N 35°31' E 139°46'5 5.0
2016-Nov-30 06:33N 35°27' E 139°43'9 9.2
2016-Nov-30 05:33N 35°30' E 139°53'8 8.2
2016-Nov-30 04:33N 35°32' E 140°03'0 0.0
2016-Nov-29 22:26N 35°32' E 140°03'4 4.3
2016-Nov-29 21:32N 35°30' E 139°59'0 0.0
2016-Nov-29 20:26N 35°30' E 139°59'0 0.0
2016-Nov-29 19:29N 35°30' E 139°59'0 0.1
2016-Nov-29 18:32N 35°30' E 139°59'0 0.0
2016-Nov-29 17:29N 35°30' E 139°59'0 0.1
2016-Nov-29 16:32N 35°30' E 139°59'0 0.0
2016-Nov-29 15:29N 35°30' E 139°59'0 0.1
2016-Nov-29 14:32N 35°30' E 139°59'0 0.0
2016-Nov-29 13:32N 35°30' E 139°59'0 0.0
2016-Nov-29 12:32N 35°30' E 139°59'0 0.0
2016-Nov-29 11:29N 35°30' E 139°59'0 0.0
2016-Nov-29 10:29N 35°30' E 139°59'0 0.0
2016-Nov-29 09:29N 35°30' E 139°59'0 0.0
2016-Nov-29 08:32N 35°30' E 139°59'0 0.0
2016-Nov-29 07:32N 35°30' E 139°59'0 0.0
2016-Nov-29 06:29N 35°30' E 139°59'0 0.1
2016-Nov-29 05:29N 35°30' E 139°59'0 0.0
2016-Nov-29 04:23N 35°30' E 139°59'0 0.0
2016-Nov-29 03:29N 35°30' E 139°59'0 0.0
2016-Nov-29 02:32N 35°30' E 139°59'0 0.0
2016-Nov-29 01:32N 35°30' E 139°59'0 0.0
2016-Nov-29 00:32N 35°30' E 139°59'0 0.0
2016-Nov-28 23:32N 35°30' E 139°59'0 0.0
2016-Nov-28 22:32N 35°30' E 139°59'0 0.0
2016-Nov-28 21:32N 35°30' E 139°59'0 0.0
2016-Nov-28 20:29N 35°30' E 139°59'0 0.0
2016-Nov-28 19:32N 35°30' E 139°59'0 0.0
2016-Nov-28 18:32N 35°30' E 139°59'0 0.0
2016-Nov-28 17:32N 35°30' E 139°59'0 0.0
2016-Nov-28 16:32N 35°30' E 139°59'0 0.0
2016-Nov-28 15:29N 35°30' E 139°59'0 0.0
2016-Nov-28 14:32N 35°30' E 139°59'0 0.0
2016-Nov-28 13:32N 35°30' E 139°59'0 0.0
2016-Nov-28 12:26N 35°30' E 139°59'0 0.0
2016-Nov-28 11:32N 35°30' E 139°59'0 0.0
2016-Nov-28 10:32N 35°30' E 139°59'0 0.0
2016-Nov-28 09:32N 35°30' E 139°59'0 0.0
2016-Nov-28 08:29N 35°30' E 139°59'0 0.0
2016-Nov-28 07:26N 35°30' E 139°59'0 0.1
2016-Nov-28 06:29N 35°30' E 139°59'0 0.1
2016-Nov-28 05:32N 35°30' E 139°59'0 0.0
2016-Nov-28 04:29N 35°30' E 139°59'0 0.1
2016-Nov-28 03:32N 35°30' E 139°59'0 0.0
2016-Nov-28 02:23N 35°30' E 139°59'0 0.0
2016-Nov-28 01:29N 35°30' E 139°59'0 0.1
2016-Nov-28 00:32N 35°30' E 139°59'7 7.0
2016-Nov-27 23:33N 35°28' E 139°51'1110.8
2016-Nov-27 22:34N 35°19' E 139°44'1010.3
2016-Nov-27 21:33N 35°09' E 139°46'  

Dump ship's entire track history